createdAt,value
2022-08-21T00:03:37.629Z,12.83
2022-08-21T00:08:37.413Z,12.23
2022-08-21T00:13:35.870Z,12.07
2022-08-21T00:18:34.758Z,12.13
2022-08-21T00:23:36.531Z,13.23
2022-08-21T00:28:34.880Z,10.93
2022-08-21T00:33:34.005Z,12.00
2022-08-21T00:38:32.999Z,9.20
2022-08-21T00:43:41.115Z,12.97
2022-08-21T00:48:39.394Z,13.80
2022-08-21T00:53:39.900Z,13.83
2022-08-21T00:58:41.610Z,12.20
2022-08-21T01:03:44.148Z,11.93
2022-08-21T01:08:46.798Z,12.30
2022-08-21T01:13:48.213Z,12.10
2022-08-21T01:18:46.528Z,15.87
2022-08-21T01:23:49.812Z,12.47
2022-08-21T01:28:54.556Z,11.73
2022-08-21T01:33:52.991Z,12.03
2022-08-21T01:38:52.928Z,8.63
2022-08-21T01:43:51.946Z,11.57
2022-08-21T01:48:50.364Z,19.73
2022-08-21T01:53:50.105Z,12.60
2022-08-21T01:58:51.974Z,12.93
2022-08-21T02:03:51.252Z,14.10
2022-08-21T02:08:51.583Z,12.63
2022-08-21T02:13:51.564Z,11.50
2022-08-21T02:18:50.191Z,13.07
2022-08-21T02:23:48.626Z,13.43
2022-08-21T02:28:47.387Z,35.53
2022-08-21T02:33:47.110Z,9.40
2022-08-21T02:38:46.207Z,15.87
2022-08-21T02:43:44.898Z,12.17
2022-08-21T02:48:43.504Z,15.33
2022-08-21T02:53:44.700Z,9.13
2022-08-21T02:58:45.754Z,14.67
2022-08-21T03:03:46.133Z,15.97
2022-08-21T03:08:47.571Z,11.13
2022-08-21T03:13:47.335Z,10.10
2022-08-21T03:18:45.721Z,9.83
2022-08-21T03:23:45.995Z,16.03
2022-08-21T03:28:44.568Z,14.67
2022-08-21T03:33:43.695Z,12.60
2022-08-21T03:38:42.506Z,17.37
2022-08-21T03:43:43.001Z,14.07
2022-08-21T03:48:42.508Z,17.33
2022-08-21T03:53:41.357Z,12.63
2022-08-21T03:58:42.165Z,10.47
2022-08-21T04:03:40.764Z,14.70
2022-08-21T04:08:39.110Z,11.57
2022-08-21T04:13:44.360Z,11.53
2022-08-21T04:18:45.208Z,15.87
2022-08-21T04:23:44.041Z,15.80
2022-08-21T04:28:43.221Z,15.83
2022-08-21T04:39:58.315Z,28.57
2022-08-21T04:45:34.228Z,19.17
2022-08-21T04:50:40.403Z,16.63
2022-08-21T04:55:40.652Z,20.73
2022-08-21T05:00:45.715Z,16.40
2022-08-21T05:11:00.664Z,26.97
2022-08-21T05:16:36.490Z,18.87
2022-08-21T05:21:37.280Z,15.93
2022-08-21T05:26:38.319Z,19.00
2022-08-21T05:31:47.237Z,22.40
2022-08-21T05:36:46.056Z,38.70
2022-08-21T05:41:44.697Z,34.20
2022-08-21T05:46:43.108Z,63.43
2022-08-21T05:51:43.720Z,38.77
2022-08-21T05:56:45.512Z,40.73
2022-08-21T06:01:43.841Z,35.53
2022-08-21T06:06:43.711Z,28.00
2022-08-21T06:11:41.975Z,51.37
2022-08-21T06:16:40.270Z,50.30
2022-08-21T06:21:38.609Z,37.53
2022-08-21T06:26:39.732Z,18.90
2022-08-21T06:31:38.087Z,29.27
2022-08-21T06:36:36.328Z,22.07
2022-08-21T06:41:39.198Z,22.87
2022-08-21T06:46:40.270Z,9.97
2022-08-21T06:51:38.488Z,29.00
2022-08-21T06:56:38.975Z,8.73
2022-08-21T07:01:37.512Z,27.03
2022-08-21T07:06:39.695Z,20.97
2022-08-21T07:11:42.423Z,26.33
2022-08-21T07:16:45.904Z,17.07
2022-08-21T07:21:45.651Z,14.47
2022-08-21T07:26:44.187Z,13.13
2022-08-21T07:31:42.400Z,9.73
2022-08-21T07:36:40.667Z,28.17
2022-08-21T07:41:40.372Z,14.33
2022-08-21T07:46:38.541Z,17.60
2022-08-21T07:51:37.103Z,9.53
2022-08-21T07:56:35.325Z,15.33
2022-08-21T08:01:35.062Z,9.03
2022-08-21T08:06:33.407Z,6.33
2022-08-21T08:11:32.270Z,10.70
2022-08-21T08:16:30.626Z,10.60
2022-08-21T08:21:30.257Z,8.70
2022-08-21T08:26:29.493Z,12.13
2022-08-21T08:31:28.285Z,9.80
2022-08-21T08:36:37.677Z,9.37
2022-08-21T08:41:39.049Z,13.20
2022-08-21T08:46:40.878Z,10.17
2022-08-21T08:51:53.126Z,9.70
2022-08-21T08:56:53.511Z,10.70
2022-08-21T09:01:52.387Z,14.47
2022-08-21T09:07:08.709Z,9.10
2022-08-21T09:12:14.156Z,11.20
2022-08-21T09:17:21.853Z,19.03
2022-08-21T09:22:29.050Z,17.23
2022-08-21T09:27:28.125Z,9.37
2022-08-21T09:32:37.128Z,11.63
2022-08-21T09:37:48.903Z,14.40
2022-08-21T09:42:57.381Z,12.20
2022-08-21T09:47:56.059Z,14.43
2022-08-21T09:52:59.606Z,14.60
2022-08-21T09:57:58.018Z,13.47
2022-08-21T10:02:56.332Z,16.50
2022-08-21T10:07:55.985Z,17.70
2022-08-21T10:13:06.072Z,16.83
2022-08-21T10:18:12.146Z,17.37
2022-08-21T10:23:38.460Z,19.20
2022-08-21T10:28:41.486Z,14.20
2022-08-21T10:33:48.831Z,17.27
2022-08-21T10:39:25.947Z,17.87
2022-08-21T10:44:32.222Z,16.40
2022-08-21T10:49:40.736Z,21.23
2022-08-21T10:54:48.737Z,18.23
2022-08-21T10:59:59.687Z,19.47
2022-08-21T11:05:02.450Z,17.63
2022-08-21T11:10:11.772Z,16.23
2022-08-21T11:15:29.943Z,16.80
2022-08-21T11:20:34.029Z,18.27
2022-08-21T11:25:37.807Z,17.73
2022-08-21T11:31:00.035Z,19.57
2022-08-21T11:36:08.028Z,15.50
2022-08-21T11:41:22.415Z,13.77
2022-08-21T11:46:30.296Z,17.80
2022-08-21T11:51:33.921Z,20.70
2022-08-21T11:56:38.185Z,20.57
2022-08-21T12:01:41.235Z,20.27
2022-08-21T12:06:41.427Z,17.53
2022-08-21T12:11:50.968Z,18.47
2022-08-21T12:16:52.195Z,17.40
2022-08-21T12:21:53.112Z,34.70
2022-08-21T12:26:54.605Z,23.00
2022-08-21T12:32:00.548Z,21.63
2022-08-21T12:37:04.530Z,24.23
2022-08-21T12:42:08.709Z,19.83
2022-08-21T12:47:16.412Z,36.97
2022-08-21T12:52:22.537Z,19.60
2022-08-21T12:57:25.692Z,20.47
2022-08-21T13:02:28.402Z,19.37
2022-08-21T13:07:34.035Z,23.40
2022-08-21T13:12:34.725Z,21.47
2022-08-21T13:17:37.226Z,24.70
2022-08-21T13:22:43.519Z,22.03
2022-08-21T13:27:44.306Z,23.23
2022-08-21T13:32:46.299Z,23.37
2022-08-21T13:37:49.630Z,31.17
2022-08-21T13:42:50.488Z,24.70
2022-08-21T13:47:50.652Z,26.83
2022-08-21T13:52:56.149Z,19.47
2022-08-21T13:58:06.063Z,36.07
2022-08-21T14:03:07.930Z,36.80
2022-08-21T14:08:10.184Z,25.17
2022-08-21T14:13:29.413Z,20.93
2022-08-21T14:18:27.717Z,25.53
2022-08-21T14:23:27.537Z,21.40
2022-08-21T14:28:29.801Z,20.23
2022-08-21T14:33:30.111Z,23.63
2022-08-21T14:38:29.779Z,21.27
2022-08-21T14:43:30.539Z,18.20
2022-08-21T14:48:31.195Z,21.80
2022-08-21T14:53:29.442Z,22.17
2022-08-21T14:58:29.455Z,27.53
2022-08-21T15:03:28.009Z,19.50
2022-08-21T15:08:26.323Z,25.23
2022-08-21T15:13:25.413Z,27.80
2022-08-21T15:18:27.396Z,21.00
2022-08-21T15:23:25.746Z,23.57
2022-08-21T15:28:23.993Z,19.43
2022-08-21T15:33:22.460Z,18.63
2022-08-21T15:38:22.057Z,20.20
2022-08-21T15:43:29.838Z,22.30
2022-08-21T15:48:29.368Z,17.20
2022-08-21T15:53:28.999Z,19.63
2022-08-21T15:58:27.293Z,17.40
2022-08-21T16:03:26.986Z,20.03
2022-08-21T16:08:25.959Z,19.80
2022-08-21T16:13:29.305Z,18.30
2022-08-21T16:18:28.385Z,17.17
2022-08-21T16:23:26.579Z,17.47
2022-08-21T16:28:26.262Z,17.40
2022-08-21T16:33:30.116Z,18.03
2022-08-21T16:38:30.336Z,17.20
2022-08-21T16:43:31.852Z,18.23
2022-08-21T16:48:31.973Z,18.23
2022-08-21T16:53:32.313Z,13.77
2022-08-21T16:58:34.198Z,17.10
2022-08-21T17:03:35.375Z,16.50
2022-08-21T17:08:33.917Z,13.03
2022-08-21T17:13:33.746Z,14.63
2022-08-21T17:18:31.979Z,12.73
2022-08-21T17:23:30.208Z,16.53
2022-08-21T17:28:33.001Z,14.53
2022-08-21T17:33:38.429Z,14.53
2022-08-21T17:38:37.648Z,11.90
2022-08-21T17:43:36.013Z,12.93
2022-08-21T17:48:35.989Z,11.17
2022-08-21T17:53:51.527Z,12.80
2022-08-21T17:58:52.084Z,11.97
2022-08-21T18:03:51.648Z,10.70
2022-08-21T18:08:49.939Z,11.13
2022-08-21T18:13:48.259Z,12.13
2022-08-21T18:18:48.929Z,14.77
2022-08-21T18:23:48.545Z,13.70
2022-08-21T18:28:46.830Z,11.80
2022-08-21T18:33:57.026Z,14.00
2022-08-21T18:39:13.633Z,14.63
2022-08-21T18:44:18.673Z,13.17
2022-08-21T18:49:17.054Z,12.50
2022-08-21T18:54:18.230Z,10.33
2022-08-21T18:59:16.915Z,10.07
2022-08-21T19:09:35.408Z,13.40
2022-08-21T19:14:34.518Z,14.20
2022-08-21T19:19:36.305Z,9.67
2022-08-21T19:24:39.233Z,11.47
2022-08-21T19:29:39.166Z,11.27
2022-08-21T19:34:38.788Z,11.60
2022-08-21T19:39:43.571Z,9.27
2022-08-21T19:44:45.667Z,8.53
2022-08-21T19:49:49.923Z,10.63
2022-08-21T19:54:49.658Z,8.80
2022-08-21T19:59:48.040Z,5.97
2022-08-21T20:10:07.200Z,7.80
2022-08-21T20:15:09.904Z,10.20
2022-08-21T20:20:09.274Z,10.10
2022-08-21T20:25:11.834Z,5.13
2022-08-21T20:30:13.250Z,8.90
2022-08-21T20:35:12.350Z,4.80
2022-08-21T20:40:15.066Z,7.97
2022-08-21T20:45:18.673Z,5.07
2022-08-21T20:50:22.653Z,8.73
2022-08-21T20:55:29.101Z,10.20
2022-08-21T21:00:31.148Z,7.63
2022-08-21T21:05:37.573Z,10.77
2022-08-21T21:10:44.751Z,8.23
2022-08-21T21:15:44.651Z,7.00
2022-08-21T21:20:49.972Z,11.10
2022-08-21T21:25:59.005Z,9.23
2022-08-21T21:30:57.831Z,7.10
2022-08-21T21:36:03.871Z,8.40
2022-08-21T21:41:11.772Z,9.80
2022-08-21T21:46:23.357Z,13.10
2022-08-21T21:51:31.677Z,9.77
2022-08-21T21:56:44.773Z,8.53
2022-08-21T22:01:50.018Z,8.37
2022-08-21T22:06:57.384Z,7.20
2022-08-21T22:12:26.518Z,8.53
2022-08-21T22:17:41.228Z,7.03
2022-08-21T22:22:40.309Z,7.20
2022-08-21T22:27:42.297Z,9.53
2022-08-21T22:32:45.820Z,8.67
2022-08-21T22:37:46.432Z,13.40
2022-08-21T22:42:59.226Z,11.80
2022-08-21T22:48:05.969Z,10.47
2022-08-21T22:53:11.391Z,7.90
2022-08-21T22:58:13.934Z,13.53
2022-08-21T23:03:22.013Z,9.83
2022-08-21T23:08:31.881Z,7.83
2022-08-21T23:13:40.824Z,9.97
2022-08-21T23:18:52.045Z,7.40
2022-08-21T23:24:03.948Z,12.13
2022-08-21T23:29:13.848Z,11.30
2022-08-21T23:34:28.488Z,14.73
2022-08-21T23:39:44.318Z,9.43
2022-08-21T23:44:59.443Z,11.33
2022-08-21T23:50:13.936Z,11.27
2022-08-21T23:55:27.545Z,9.83
